Time;durP1;ratioP1;P1;durP2;ratioP2;P2;SDS_P1;SDS_P2;PMS_P1;PMS_P2;Temp;Humidity;BMP_temperature;BMP_pressure;BME280_temperature;BME280_humidity;BME280_pressure;Samples;Min_cycle;Max_cycle;Signal;HPM_P1;HPM_P2
2021/05/30 00:01:47;;;;;;;8.10;5.80;;;11.90;75.70;;;;;;5072644;28;20392;-70
2021/05/30 00:04:13;;;;;;;6.63;5.28;;;11.90;75.80;;;;;;5073885;28;20040;-71
2021/05/30 00:06:39;;;;;;;7.10;6.05;;;11.80;75.80;;;;;;5072722;28;20025;-71
2021/05/30 00:09:05;;;;;;;9.13;6.10;;;11.80;75.80;;;;;;5072653;28;20115;-71
2021/05/30 00:11:34;;;;;;;8.25;5.75;;;11.80;75.80;;;;;;5072668;28;20119;-71
2021/05/30 00:14:00;;;;;;;8.48;6.25;;;11.80;75.80;;;;;;5072500;28;20408;-71
2021/05/30 00:16:26;;;;;;;8.13;6.03;;;11.80;75.70;;;;;;5073967;28;20027;-71
2021/05/30 00:18:51;;;;;;;6.90;5.57;;;11.80;75.70;;;;;;5073616;28;20037;-71
2021/05/30 00:21:17;;;;;;;7.22;6.20;;;11.80;75.60;;;;;;5072430;28;20495;-71
2021/05/30 00:23:43;;;;;;;5.88;5.28;;;11.90;75.50;;;;;;5073676;28;20499;-71
2021/05/30 00:26:08;;;;;;;8.15;6.15;;;11.80;76.00;;;;;;5073892;28;20569;-71
2021/05/30 00:28:34;;;;;;;7.43;6.40;;;11.80;75.40;;;;;;5073837;28;20067;-70
2021/05/30 00:31:00;;;;;;;8.35;6.15;;;11.70;75.40;;;;;;5072189;28;20391;-71
2021/05/30 00:33:25;;;;;;;8.88;6.30;;;11.70;75.50;;;;;;5072154;28;20028;-70
2021/05/30 00:35:51;;;;;;;10.27;6.55;;;11.60;75.50;;;;;;5073501;28;20480;-71
2021/05/30 00:38:16;;;;;;;9.38;6.10;;;11.60;75.50;;;;;;5072123;28;20361;-71
2021/05/30 00:40:42;;;;;;;8.13;6.18;;;11.60;75.60;;;;;;5073230;28;20483;-71
2021/05/30 00:43:08;;;;;;;9.20;6.00;;;11.60;75.50;;;;;;5072026;28;20078;-71
2021/05/30 00:45:34;;;;;;;8.25;6.20;;;11.60;75.50;;;;;;5073322;28;20476;-70
2021/05/30 00:48:00;;;;;;;8.25;6.10;;;11.60;75.40;;;;;;5071809;28;20023;-71
2021/05/30 00:50:26;;;;;;;9.35;6.70;;;11.60;75.50;;;;;;5071987;28;20024;-70
2021/05/30 00:52:52;;;;;;;8.55;6.00;;;11.60;75.30;;;;;;5073072;28;20029;-71
2021/05/30 00:55:18;;;;;;;9.82;6.70;;;11.60;75.30;;;;;;5071880;28;20112;-71
2021/05/30 00:57:44;;;;;;;7.60;5.88;;;11.60;75.20;;;;;;5073284;28;20522;-71
2021/05/30 01:00:12;;;;;;;10.65;6.72;;;11.60;75.20;;;;;;5073852;28;20028;-71
2021/05/30 01:02:38;;;;;;;8.35;5.85;;;11.60;75.20;;;;;;5072621;28;20023;-71
2021/05/30 01:05:07;;;;;;;8.68;6.05;;;11.50;75.20;;;;;;5071899;28;20488;-71
2021/05/30 01:07:41;;;;;;;9.07;6.68;;;11.50;75.30;;;;;;5072053;28;20023;-71
2021/05/30 01:10:22;;;;;;;8.40;6.63;;;11.40;75.30;;;;;;5072092;28;20020;-71
2021/05/30 01:12:48;;;;;;;9.02;6.80;;;11.50;75.40;;;;;;5071842;28;20041;-71
2021/05/30 01:15:15;;;;;;;7.63;5.78;;;11.50;75.20;;;;;;5073417;28;20024;-71
2021/05/30 01:17:42;;;;;;;8.30;6.55;;;11.40;75.20;;;;;;5073129;28;20498;-71
2021/05/30 01:20:12;;;;;;;10.18;6.82;;;11.40;75.30;;;;;;5072893;28;20356;-70
2021/05/30 01:22:39;;;;;;;8.75;6.70;;;11.30;75.30;;;;;;5073031;28;20021;-70
2021/05/30 01:25:06;;;;;;;8.10;6.70;;;11.20;76.00;;;;;;5071703;28;20025;-71
2021/05/30 01:27:31;;;;;;;9.73;6.57;;;11.10;75.50;;;;;;5073398;28;20021;-71
2021/05/30 01:29:57;;;;;;;9.90;6.68;;;11.10;75.70;;;;;;5073029;28;20024;-71
2021/05/30 01:32:23;;;;;;;9.18;6.72;;;11.00;75.80;;;;;;5071703;28;20021;-70
2021/05/30 01:34:48;;;;;;;8.10;7.03;;;11.00;75.80;;;;;;5072914;28;20024;-71
2021/05/30 01:37:14;;;;;;;9.82;7.05;;;11.00;75.70;;;;;;5073124;28;20476;-71
2021/05/30 01:39:40;;;;;;;8.60;6.57;;;11.00;75.70;;;;;;5072746;28;20024;-70
2021/05/30 01:42:06;;;;;;;10.65;7.50;;;11.00;75.70;;;;;;5073355;28;20065;-71
2021/05/30 01:44:32;;;;;;;9.50;6.85;;;11.10;75.80;;;;;;5073017;28;20027;-71
2021/05/30 01:46:58;;;;;;;8.73;6.53;;;11.10;75.70;;;;;;5073104;28;20578;-71
2021/05/30 01:49:23;;;;;;;10.05;7.20;;;11.10;75.70;;;;;;5072836;28;20031;-71
2021/05/30 01:51:49;;;;;;;12.07;7.78;;;11.00;75.70;;;;;;5072726;28;20047;-71
2021/05/30 01:54:18;;;;;;;9.15;7.03;;;10.90;75.70;;;;;;5071494;28;20554;-71
2021/05/30 01:56:56;;;;;;;9.32;6.80;;;11.00;75.80;;;;;;5071389;28;20361;-70
2021/05/30 01:59:23;;;;;;;9.63;7.38;;;11.00;75.80;;;;;;5072596;28;20020;-71
2021/05/30 02:01:52;;;;;;;12.07;8.80;;;11.00;75.70;;;;;;5071331;28;20383;-71
2021/05/30 02:04:21;;;;;;;8.35;7.13;;;10.90;75.70;;;;;;5072546;28;20035;-71
2021/05/30 02:06:48;;;;;;;9.57;6.65;;;10.90;75.70;;;;;;5071471;28;20034;-71
2021/05/30 02:09:15;;;;;;;9.93;7.40;;;10.90;75.70;;;;;;5071429;28;20025;-71
2021/05/30 02:11:41;;;;;;;9.95;7.55;;;10.90;75.70;;;;;;5072609;28;20059;-71
2021/05/30 02:14:07;;;;;;;10.10;7.03;;;11.00;75.70;;;;;;5074302;28;20051;-71
2021/05/30 02:16:34;;;;;;;10.43;7.38;;;11.00;75.70;;;;;;5075006;28;20021;-70
2021/05/30 02:19:00;;;;;;;9.55;7.78;;;11.00;75.70;;;;;;5076137;28;20373;-70
2021/05/30 02:21:26;;;;;;;10.60;7.20;;;10.90;75.70;;;;;;5074930;28;20032;-71
2021/05/30 02:23:52;;;;;;;9.80;6.97;;;10.90;75.80;;;;;;5076160;28;20020;-71
2021/05/30 02:26:17;;;;;;;12.38;7.35;;;10.90;75.80;;;;;;5074841;28;20078;-70
2021/05/30 02:28:43;;;;;;;9.73;7.38;;;10.90;75.70;;;;;;5076029;28;20020;-70
2021/05/30 02:31:09;;;;;;;10.95;7.18;;;10.80;75.80;;;;;;5076333;28;20020;-71
2021/05/30 02:33:34;;;;;;;13.00;7.57;;;10.70;75.80;;;;;;5075956;28;20030;-71
2021/05/30 02:36:00;;;;;;;9.30;7.13;;;10.70;76.50;;;;;;5075933;28;20024;-70
2021/05/30 02:38:26;;;;;;;9.88;6.93;;;10.60;75.90;;;;;;5074582;28;20028;-71
2021/05/30 02:40:52;;;;;;;10.43;6.97;;;10.60;76.00;;;;;;5074485;28;20024;-71
2021/05/30 02:43:18;;;;;;;12.90;7.85;;;10.50;76.00;;;;;;5074463;28;20472;-70
2021/05/30 02:45:44;;;;;;;10.95;7.60;;;10.50;76.10;;;;;;5076190;28;20032;-71
2021/05/30 02:48:10;;;;;;;11.77;7.88;;;10.50;76.20;;;;;;5074382;28;20039;-71
2021/05/30 02:50:35;;;;;;;11.07;7.30;;;10.40;76.20;;;;;;5074322;28;20380;-71
2021/05/30 02:53:01;;;;;;;9.68;6.90;;;10.40;76.30;;;;;;5075676;28;20556;-70
2021/05/30 02:55:26;;;;;;;7.53;6.57;;;10.40;76.30;;;;;;5074327;28;20028;-71
2021/05/30 02:57:52;;;;;;;9.45;6.72;;;10.40;76.30;;;;;;5074172;28;20029;-70
2021/05/30 03:00:19;;;;;;;10.45;7.13;;;10.40;76.30;;;;;;5075355;28;20120;-71
2021/05/30 03:02:45;;;;;;;10.75;7.75;;;10.40;76.30;;;;;;5074038;28;20062;-70
2021/05/30 03:05:11;;;;;;;11.63;7.28;;;10.40;76.40;;;;;;5075150;28;20374;-70
2021/05/30 03:07:37;;;;;;;8.88;7.00;;;10.40;76.50;;;;;;5075397;28;20017;-70
2021/05/30 03:10:03;;;;;;;11.93;7.80;;;10.30;76.40;;;;;;5075278;28;20113;-70
2021/05/30 03:12:29;;;;;;;11.35;7.13;;;10.30;76.50;;;;;;5075151;28;20021;-70
2021/05/30 03:14:55;;;;;;;11.23;7.97;;;10.30;76.60;;;;;;5075126;28;20106;-71
2021/05/30 03:17:20;;;;;;;10.55;7.55;;;10.30;76.60;;;;;;5073748;28;20024;-71
2021/05/30 03:19:46;;;;;;;9.65;7.53;;;10.30;76.70;;;;;;5074880;28;20082;-70
2021/05/30 03:22:11;;;;;;;11.23;7.88;;;10.20;76.70;;;;;;5074932;28;20031;-71
2021/05/30 03:24:37;;;;;;;13.48;8.00;;;10.20;76.80;;;;;;5073048;28;20031;-70
2021/05/30 03:27:03;;;;;;;10.10;7.97;;;10.20;76.90;;;;;;5073555;28;20115;-70
2021/05/30 03:29:29;;;;;;;12.15;7.93;;;10.20;77.00;;;;;;5073472;28;20017;-70
2021/05/30 03:31:54;;;;;;;12.15;7.63;;;10.10;77.00;;;;;;5074841;28;20480;-70
2021/05/30 03:34:20;;;;;;;11.00;7.78;;;10.10;77.10;;;;;;5074670;28;20521;-70
2021/05/30 03:36:49;;;;;;;10.35;7.88;;;10.10;77.10;;;;;;5073273;28;20115;-71
2021/05/30 03:39:15;;;;;;;12.13;7.35;;;10.20;77.10;;;;;;5074774;28;20048;-71
2021/05/30 03:41:42;;;;;;;11.15;6.97;;;10.20;77.10;;;;;;5074479;28;20119;-70
2021/05/30 03:44:09;;;;;;;12.10;7.88;;;10.20;77.00;;;;;;5074955;28;20016;-70
2021/05/30 03:46:36;;;;;;;11.85;7.65;;;10.20;77.00;;;;;;5073133;28;20024;-70
2021/05/30 03:49:03;;;;;;;10.00;7.25;;;10.30;77.10;;;;;;5074601;28;20029;-70
2021/05/30 03:51:29;;;;;;;13.45;8.15;;;10.20;77.00;;;;;;5073238;28;20039;-70
2021/05/30 03:53:55;;;;;;;10.70;7.47;;;10.30;77.10;;;;;;5073032;28;20025;-70
2021/05/30 03:56:21;;;;;;;12.38;7.45;;;10.30;77.70;;;;;;5072914;28;20029;-70
2021/05/30 03:58:46;;;;;;;11.15;7.50;;;10.30;77.00;;;;;;5074061;28;20052;-70
2021/05/30 04:01:12;;;;;;;11.95;7.22;;;10.40;77.00;;;;;;5072849;28;20493;-70
2021/05/30 04:03:38;;;;;;;10.57;7.30;;;10.40;76.90;;;;;;5073615;28;20341;-70
2021/05/30 04:06:03;;;;;;;12.02;7.78;;;10.40;76.90;;;;;;5072544;28;20040;-70
2021/05/30 04:08:29;;;;;;;13.10;8.32;;;10.50;76.80;;;;;;5073966;28;20037;-69
2021/05/30 04:10:55;;;;;;;12.25;7.72;;;10.40;76.80;;;;;;5073964;28;20129;-70
2021/05/30 04:13:20;;;;;;;12.40;8.30;;;10.40;76.80;;;;;;5073785;28;20115;-70
2021/05/30 04:15:46;;;;;;;11.27;8.07;;;10.40;76.90;;;;;;5072560;28;20429;-70
2021/05/30 04:18:12;;;;;;;9.60;7.60;;;10.50;76.90;;;;;;5073836;28;20028;-70
2021/05/30 04:20:38;;;;;;;12.90;8.25;;;10.50;76.90;;;;;;5073764;28;20036;-70
2021/05/30 04:23:03;;;;;;;10.55;7.82;;;10.60;76.80;;;;;;5072465;28;20020;-70
2021/05/30 04:25:30;;;;;;;11.73;8.55;;;10.60;76.70;;;;;;5072346;28;20543;-70
2021/05/30 04:27:56;;;;;;;13.73;8.13;;;10.60;76.70;;;;;;5073611;28;20028;-70
2021/05/30 04:30:22;;;;;;;10.13;7.85;;;10.60;76.80;;;;;;5072278;28;20036;-70
2021/05/30 04:32:47;;;;;;;15.88;8.45;;;10.60;76.90;;;;;;5073528;28;20553;-70
2021/05/30 04:35:13;;;;;;;11.23;8.10;;;10.50;76.90;;;;;;5073409;28;20035;-70
2021/05/30 04:37:39;;;;;;;8.90;7.18;;;10.60;76.80;;;;;;5072668;28;20036;-70
2021/05/30 04:40:06;;;;;;;11.98;7.85;;;10.60;76.80;;;;;;5071942;28;20028;-70
2021/05/30 04:42:32;;;;;;;10.15;7.28;;;10.70;77.40;;;;;;5073388;28;20074;-70
2021/05/30 04:44:58;;;;;;;10.98;7.45;;;10.70;76.60;;;;;;5072990;28;20468;-70
2021/05/30 04:47:24;;;;;;;11.57;7.85;;;10.70;76.60;;;;;;5071832;28;20021;-69
2021/05/30 04:49:49;;;;;;;10.75;7.95;;;10.80;76.60;;;;;;5073359;28;20372;-70
2021/05/30 04:52:15;;;;;;;10.00;7.40;;;10.80;76.50;;;;;;5071708;28;20077;-70
2021/05/30 04:54:41;;;;;;;10.50;7.63;;;10.80;76.50;;;;;;5071528;28;20032;-70
2021/05/30 04:57:07;;;;;;;13.13;7.72;;;10.80;76.50;;;;;;5073266;28;20370;-70
2021/05/30 04:59:32;;;;;;;11.90;7.72;;;10.80;76.50;;;;;;5071591;28;20442;-70
2021/05/30 05:01:58;;;;;;;12.73;8.02;;;10.90;77.20;;;;;;5072840;28;20389;-70
2021/05/30 05:04:24;;;;;;;13.07;7.70;;;10.90;76.60;;;;;;5072731;28;20032;-70
2021/05/30 05:06:50;;;;;;;11.93;7.93;;;11.00;76.60;;;;;;5071548;28;20033;-70
2021/05/30 05:09:16;;;;;;;10.82;7.72;;;11.00;76.40;;;;;;5072420;28;20376;-70
2021/05/30 05:11:41;;;;;;;11.52;8.07;;;11.10;76.40;;;;;;5072981;28;20029;-70
2021/05/30 05:14:07;;;;;;;11.65;7.82;;;11.10;76.30;;;;;;5071457;28;20032;-70
2021/05/30 05:16:34;;;;;;;13.02;8.45;;;11.20;76.30;;;;;;5071469;28;20029;-70
2021/05/30 05:18:59;;;;;;;11.73;8.07;;;11.20;76.20;;;;;;5071328;28;20036;-69
2021/05/30 05:21:26;;;;;;;9.90;8.00;;;11.20;76.10;;;;;;5071459;28;20020;-69
2021/05/30 05:23:54;;;;;;;12.13;8.15;;;11.30;76.20;;;;;;5072874;28;20031;-69
2021/05/30 05:26:20;;;;;;;11.07;7.95;;;11.40;76.20;;;;;;5072660;28;20020;-69
2021/05/30 05:28:45;;;;;;;11.18;7.60;;;11.40;76.10;;;;;;5072757;28;20024;-70
2021/05/30 05:31:11;;;;;;;11.80;7.85;;;11.40;76.00;;;;;;5072695;28;20021;-70
2021/05/30 05:33:37;;;;;;;11.32;7.68;;;11.50;76.00;;;;;;5072641;28;20021;-70
2021/05/30 05:36:02;;;;;;;10.05;7.65;;;11.50;76.00;;;;;;5072703;28;20075;-70
2021/05/30 05:38:28;;;;;;;10.45;8.00;;;11.50;76.00;;;;;;5071164;28;20119;-70
2021/05/30 05:40:54;;;;;;;10.82;7.45;;;11.50;75.90;;;;;;5071229;28;20036;-69
2021/05/30 05:43:19;;;;;;;11.60;8.13;;;11.60;75.90;;;;;;5072626;28;20028;-70
2021/05/30 05:45:45;;;;;;;12.63;7.68;;;11.70;75.80;;;;;;5072642;28;20021;-70
2021/05/30 05:48:13;;;;;;;12.93;7.97;;;11.80;75.70;;;;;;5072776;28;20430;-69
2021/05/30 05:50:40;;;;;;;9.77;7.68;;;11.80;75.60;;;;;;5075212;28;20028;-70
2021/05/30 05:53:06;;;;;;;10.20;7.40;;;11.90;75.60;;;;;;5076506;28;20059;-70
2021/05/30 05:55:33;;;;;;;10.20;7.70;;;12.00;75.50;;;;;;5075069;28;20064;-70
2021/05/30 05:57:59;;;;;;;10.02;8.20;;;12.00;75.50;;;;;;5076403;28;20086;-70
2021/05/30 06:00:25;;;;;;;11.98;7.70;;;12.10;75.40;;;;;;5076170;28;20526;-70
2021/05/30 06:02:51;;;;;;;11.52;7.88;;;12.10;75.30;;;;;;5076507;28;20092;-70
2021/05/30 06:05:19;;;;;;;9.60;7.25;;;12.20;75.30;;;;;;5074624;28;20134;-70
2021/05/30 06:07:46;;;;;;;11.13;7.57;;;12.20;75.20;;;;;;5075008;28;20472;-70
2021/05/30 06:10:14;;;;;;;9.75;7.85;;;12.30;75.10;;;;;;5076157;28;20029;-69
2021/05/30 06:12:40;;;;;;;10.85;7.82;;;12.30;74.90;;;;;;5074611;28;20024;-70
2021/05/30 06:15:06;;;;;;;13.40;8.05;;;12.40;74.90;;;;;;5076058;28;20031;-70
2021/05/30 06:17:32;;;;;;;11.48;7.85;;;12.40;74.80;;;;;;5075810;28;20108;-70
2021/05/30 06:19:58;;;;;;;11.65;8.40;;;12.50;74.70;;;;;;5074583;28;20108;-70
2021/05/30 06:22:24;;;;;;;12.23;8.35;;;12.50;74.70;;;;;;5075824;28;20032;-71
2021/05/30 06:24:49;;;;;;;11.10;8.30;;;12.60;74.70;;;;;;5075768;28;20021;-70
2021/05/30 06:27:15;;;;;;;11.27;7.68;;;12.60;74.60;;;;;;5074435;28;20027;-70
2021/05/30 06:29:41;;;;;;;10.85;8.45;;;12.70;74.50;;;;;;5074491;28;20016;-70
2021/05/30 06:32:07;;;;;;;13.48;7.80;;;12.80;74.50;;;;;;5074462;28;20166;-73
2021/05/30 06:34:34;;;;;;;10.52;7.97;;;12.80;74.30;;;;;;5075692;28;20032;-70
2021/05/30 06:36:59;;;;;;;10.00;7.72;;;12.90;74.20;;;;;;5075727;28;20024;-72
2021/05/30 06:39:25;;;;;;;10.52;7.50;;;12.90;74.10;;;;;;5075576;28;20491;-74
2021/05/30 06:41:52;;;;;;;10.88;8.05;;;13.00;74.00;;;;;;5075745;28;20025;-74
2021/05/30 06:44:18;;;;;;;9.23;7.30;;;13.00;73.90;;;;;;5074643;28;20021;-73
2021/05/30 06:46:44;;;;;;;11.70;8.00;;;13.10;73.80;;;;;;5074328;28;20016;-74
2021/05/30 06:49:10;;;;;;;10.57;8.27;;;13.10;73.70;;;;;;5074241;28;20021;-73
2021/05/30 06:51:36;;;;;;;11.35;8.18;;;13.20;73.70;;;;;;5074275;28;20379;-73
2021/05/30 06:54:03;;;;;;;10.82;7.20;;;13.30;73.70;;;;;;5075596;28;20107;-75
2021/05/30 06:56:29;;;;;;;10.45;7.50;;;13.30;73.60;;;;;;5073997;28;20480;-73
2021/05/30 06:58:55;;;;;;;10.48;7.90;;;13.30;73.40;;;;;;5075199;28;20354;-72
2021/05/30 07:01:23;;;;;;;10.00;8.02;;;13.40;73.30;;;;;;5073590;28;20021;-73
2021/05/30 07:03:50;;;;;;;9.85;7.80;;;13.40;73.10;;;;;;5075246;28;20032;-72
2021/05/30 07:06:17;;;;;;;9.35;7.45;;;13.50;73.10;;;;;;5074912;28;20387;-72
2021/05/30 07:08:43;;;;;;;10.00;7.75;;;13.50;72.90;;;;;;5073898;28;20017;-72
2021/05/30 07:11:09;;;;;;;10.82;8.05;;;13.60;72.90;;;;;;5074008;28;20450;-73
2021/05/30 07:13:35;;;;;;;10.95;7.60;;;13.60;72.80;;;;;;5073869;28;20024;-72
2021/05/30 07:16:01;;;;;;;10.45;7.03;;;13.70;72.80;;;;;;5073802;28;20031;-73
2021/05/30 07:18:27;;;;;;;9.45;7.30;;;13.80;72.70;;;;;;5073726;28;20074;-72
2021/05/30 07:20:53;;;;;;;10.98;7.60;;;13.80;72.60;;;;;;5075451;28;20047;-73
2021/05/30 07:23:20;;;;;;;12.43;8.02;;;13.90;72.50;;;;;;5074833;28;20063;-73
2021/05/30 07:25:47;;;;;;;9.27;7.35;;;14.00;72.30;;;;;;5073629;28;20025;-73
2021/05/30 07:28:13;;;;;;;10.15;6.85;;;14.10;72.30;;;;;;5073517;28;20024;-73
2021/05/30 07:30:39;;;;;;;10.65;6.72;;;14.10;72.00;;;;;;5074954;28;20101;-73
2021/05/30 07:33:06;;;;;;;9.68;6.70;;;14.20;72.00;;;;;;5073585;28;20037;-73
2021/05/30 07:35:32;;;;;;;9.48;7.15;;;14.30;71.90;;;;;;5075174;28;20052;-73
2021/05/30 07:37:59;;;;;;;9.75;7.50;;;14.40;71.70;;;;;;5073471;28;20439;-73
2021/05/30 07:40:25;;;;;;;9.93;6.80;;;14.40;71.50;;;;;;5073423;28;20395;-72
2021/05/30 07:42:52;;;;;;;7.65;6.82;;;14.60;71.50;;;;;;5073294;28;20028;-73
2021/05/30 07:45:19;;;;;;;9.30;7.03;;;14.70;71.40;;;;;;5074371;28;20527;-73
2021/05/30 07:47:45;;;;;;;10.65;7.47;;;14.80;71.20;;;;;;5074417;28;20372;-73
2021/05/30 07:50:13;;;;;;;10.00;6.93;;;14.80;70.90;;;;;;5072983;28;20078;-73
2021/05/30 07:52:39;;;;;;;9.73;7.55;;;14.90;70.80;;;;;;5073227;28;20112;-73
2021/05/30 07:55:06;;;;;;;8.43;6.75;;;15.00;70.70;;;;;;5073083;28;20028;-73
2021/05/30 07:57:32;;;;;;;8.27;6.40;;;15.00;70.40;;;;;;5072990;28;20037;-73
2021/05/30 07:59:58;;;;;;;9.38;7.30;;;15.10;70.40;;;;;;5074149;28;20060;-73
2021/05/30 08:02:24;;;;;;;9.77;6.90;;;15.20;70.30;;;;;;5072697;28;20028;-71
2021/05/30 08:04:50;;;;;;;9.95;7.00;;;15.20;70.10;;;;;;5072904;28;20042;-71
2021/05/30 08:07:16;;;;;;;9.88;7.47;;;15.30;69.90;;;;;;5072367;28;20111;-71
2021/05/30 08:09:42;;;;;;;10.50;7.25;;;15.30;69.80;;;;;;5072696;28;20027;-71
2021/05/30 08:12:08;;;;;;;10.15;7.15;;;15.40;69.70;;;;;;5074063;28;20427;-71
2021/05/30 08:14:36;;;;;;;8.52;6.93;;;15.40;69.70;;;;;;5074391;28;20048;-71
2021/05/30 08:17:03;;;;;;;8.23;6.53;;;15.50;70.30;;;;;;5074471;28;20059;-72
2021/05/30 08:19:28;;;;;;;8.32;7.07;;;15.60;69.60;;;;;;5072634;28;20045;-71
2021/05/30 08:21:54;;;;;;;10.55;7.75;;;15.60;69.40;;;;;;5074037;28;20025;-71
2021/05/30 08:24:20;;;;;;;9.13;7.03;;;15.60;69.20;;;;;;5073880;28;20102;-71
2021/05/30 08:26:46;;;;;;;10.98;7.68;;;15.70;69.30;;;;;;5074439;28;20468;-71
2021/05/30 08:29:11;;;;;;;8.35;6.82;;;15.70;69.30;;;;;;5072493;28;20039;-71
2021/05/30 08:31:37;;;;;;;8.60;7.00;;;15.80;69.20;;;;;;5072480;28;20468;-71
2021/05/30 08:34:02;;;;;;;9.35;6.80;;;15.80;69.00;;;;;;5073631;28;20035;-70
2021/05/30 08:36:28;;;;;;;10.02;7.20;;;15.80;68.90;;;;;;5073700;28;20072;-71
2021/05/30 08:38:54;;;;;;;9.95;7.25;;;15.90;68.80;;;;;;5072291;28;20051;-71
2021/05/30 08:41:21;;;;;;;9.70;6.80;;;15.90;68.70;;;;;;5073828;28;20063;-70
2021/05/30 08:43:47;;;;;;;11.23;7.00;;;16.00;68.70;;;;;;5072383;28;20022;-70
2021/05/30 08:46:13;;;;;;;10.23;7.07;;;16.10;68.60;;;;;;5072254;28;20112;-72
2021/05/30 08:48:38;;;;;;;8.85;7.45;;;16.20;68.50;;;;;;5073754;28;20020;-70
2021/05/30 08:51:05;;;;;;;9.52;6.80;;;16.30;68.20;;;;;;5073595;28;20340;-70
2021/05/30 08:53:36;;;;;;;9.23;7.00;;;16.40;68.00;;;;;;5073499;28;20032;-72
2021/05/30 08:56:03;;;;;;;8.68;6.82;;;16.40;67.90;;;;;;5074033;28;20150;-70
2021/05/30 08:58:42;;;;;;;9.73;6.97;;;16.50;67.90;;;;;;5072233;28;20170;-70
2021/05/30 09:01:12;;;;;;;11.27;7.85;;;16.60;67.70;;;;;;5073386;28;20063;-71
2021/05/30 09:03:54;;;;;;;9.00;6.55;;;16.70;67.60;;;;;;5072725;28;20081;-71
2021/05/30 09:06:21;;;;;;;7.55;5.10;;;16.80;67.40;;;;;;5071685;28;20400;-71
2021/05/30 09:08:52;;;;;;;6.78;5.40;;;16.80;67.10;;;;;;5071974;28;20040;-71
2021/05/30 09:11:35;;;;;;;7.07;5.90;;;16.90;66.90;;;;;;5071916;28;20043;-71
2021/05/30 09:14:03;;;;;;;6.57;5.75;;;17.00;66.50;;;;;;5072117;28;20095;-71
2021/05/30 09:16:49;;;;;;;6.93;5.32;;;17.00;66.60;;;;;;5072003;28;20032;-71
2021/05/30 09:19:33;;;;;;;5.53;4.75;;;17.10;66.40;;;;;;5073091;28;20037;-71
2021/05/30 09:22:17;;;;;;;6.70;4.30;;;17.10;66.00;;;;;;5071608;28;20059;-71
2021/05/30 09:24:52;;;;;;;5.10;3.80;;;17.20;65.60;;;;;;5073228;28;20032;-71
2021/05/30 09:27:22;;;;;;;5.10;3.88;;;17.20;65.40;;;;;;5071831;28;20032;-71
2021/05/30 09:30:10;;;;;;;4.35;3.50;;;17.30;65.30;;;;;;5071879;28;20060;-71
2021/05/30 09:33:04;;;;;;;4.30;3.90;;;17.40;65.00;;;;;;5073064;28;20082;-71
2021/05/30 09:35:45;;;;;;;5.93;4.35;;;17.50;64.60;;;;;;5073015;28;20426;-71
2021/05/30 09:38:12;;;;;;;4.40;4.00;;;17.50;64.20;;;;;;5072995;28;20043;-71
2021/05/30 09:40:39;;;;;;;5.82;4.25;;;17.60;64.20;;;;;;5073007;28;20031;-71
2021/05/30 09:43:13;;;;;;;5.30;4.32;;;17.70;64.20;;;;;;5071603;28;20472;-71
2021/05/30 09:45:40;;;;;;;5.78;4.25;;;17.80;64.00;;;;;;5071678;28;20078;-70
2021/05/30 09:48:20;;;;;;;5.70;4.03;;;17.90;63.90;;;;;;5071737;28;20087;-71
2021/05/30 09:51:02;;;;;;;5.65;3.88;;;18.00;63.60;;;;;;5072864;28;20387;-71
2021/05/30 09:53:41;;;;;;;6.43;5.25;;;18.00;63.20;;;;;;5072947;28;20063;-71
2021/05/30 09:56:36;;;;;;;6.18;4.90;;;18.10;63.10;;;;;;5072811;28;20036;-71
2021/05/30 09:59:05;;;;;;;5.18;4.30;;;18.20;62.90;;;;;;5071343;28;20043;-71
2021/05/30 10:01:53;;;;;;;5.10;4.25;;;18.30;62.80;;;;;;5071341;28;20024;-71
2021/05/30 10:04:20;;;;;;;5.85;4.45;;;18.30;62.50;;;;;;5071910;28;20027;-71
2021/05/30 10:06:46;;;;;;;6.30;5.30;;;18.40;62.50;;;;;;5072459;28;20036;-71
2021/05/30 10:09:13;;;;;;;5.25;4.53;;;18.40;62.00;;;;;;5072530;28;20495;-71
2021/05/30 10:11:40;;;;;;;5.47;4.60;;;18.50;61.90;;;;;;5072709;28;20111;-71
2021/05/30 10:14:06;;;;;;;4.32;3.80;;;18.50;61.80;;;;;;5072667;28;20533;-71
2021/05/30 10:16:34;;;;;;;6.07;4.90;;;18.50;61.50;;;;;;5071396;28;20111;-71
2021/05/30 10:19:23;;;;;;;7.28;4.90;;;18.60;61.20;;;;;;5072611;28;20132;-71
2021/05/30 10:21:51;;;;;;;5.60;4.28;;;18.70;60.70;;;;;;5072511;28;20036;-71
2021/05/30 10:24:18;;;;;;;6.10;4.32;;;18.70;60.90;;;;;;5072767;28;20068;-71
2021/05/30 10:26:44;;;;;;;6.13;4.28;;;18.80;60.80;;;;;;5072460;28;20036;-72
2021/05/30 10:29:18;;;;;;;4.97;4.30;;;18.90;60.50;;;;;;5071504;28;20033;-71
2021/05/30 10:31:48;;;;;;;5.00;4.32;;;18.90;59.90;;;;;;5071271;28;20426;-71
2021/05/30 10:34:19;;;;;;;5.22;4.32;;;18.90;59.90;;;;;;5071155;28;20020;-71
2021/05/30 10:37:16;;;;;;;5.43;3.72;;;18.90;59.60;;;;;;5076389;28;20123;-71
2021/05/30 10:39:42;;;;;;;4.65;3.72;;;19.00;59.50;;;;;;5075790;28;20040;-71
2021/05/30 10:42:16;;;;;;;4.53;3.50;;;19.00;59.00;;;;;;5074413;28;20037;-71
2021/05/30 10:45:02;;;;;;;3.85;3.13;;;19.00;59.00;;;;;;5074427;28;20020;-71
2021/05/30 10:47:44;;;;;;;3.13;2.80;;;19.20;58.70;;;;;;5075576;28;20024;-71
2021/05/30 10:50:15;;;;;;;3.22;2.92;;;19.30;58.30;;;;;;5074323;28;20028;-71
2021/05/30 10:52:43;;;;;;;4.38;3.10;;;19.40;57.90;;;;;;5074291;28;20031;-71
2021/05/30 10:55:27;;;;;;;5.00;3.53;;;19.50;57.90;;;;;;5076009;28;20036;-72
2021/05/30 10:57:53;;;;;;;3.28;2.97;;;19.60;57.80;;;;;;5074231;28;20400;-71
2021/05/30 11:00:19;;;;;;;3.08;2.78;;;19.70;57.70;;;;;;5074078;28;20031;-71
2021/05/30 11:03:06;;;;;;;5.32;3.10;;;19.80;57.50;;;;;;5074194;28;20090;-71
2021/05/30 11:05:38;;;;;;;3.30;3.00;;;20.00;56.80;;;;;;5074703;28;20028;-71
2021/05/30 11:08:04;;;;;;;2.83;2.55;;;20.00;56.50;;;;;;5075520;28;20032;-71
2021/05/30 11:10:29;;;;;;;3.20;2.80;;;20.10;56.30;;;;;;5074995;28;20442;-71
2021/05/30 11:12:56;;;;;;;3.40;2.90;;;20.10;55.80;;;;;;5074075;28;20476;-71
2021/05/30 11:15:27;;;;;;;3.15;2.85;;;20.20;55.50;;;;;;5075319;28;20047;-71
2021/05/30 11:17:58;;;;;;;3.50;2.70;;;20.20;54.50;;;;;;5074032;28;20070;-71
2021/05/30 11:20:25;;;;;;;3.03;2.35;;;20.30;54.70;;;;;;5075100;28;20158;-71
2021/05/30 11:22:51;;;;;;;3.03;2.72;;;20.30;54.70;;;;;;5075667;28;20502;-71
2021/05/30 11:25:21;;;;;;;3.38;2.97;;;20.40;54.60;;;;;;5075139;28;20060;-71
2021/05/30 11:28:01;;;;;;;3.58;3.05;;;20.50;55.00;;;;;;5075855;28;20098;-71
2021/05/30 11:30:40;;;;;;;3.60;2.45;;;20.50;54.00;;;;;;5073848;28;20435;-71
2021/05/30 11:33:08;;;;;;;2.92;2.58;;;20.60;53.50;;;;;;5073852;28;20033;-71
2021/05/30 11:35:35;;;;;;;2.92;2.63;;;20.60;53.50;;;;;;5074823;28;20373;-71
2021/05/30 11:38:01;;;;;;;3.65;2.60;;;20.60;53.60;;;;;;5073621;28;20029;-71
2021/05/30 11:40:27;;;;;;;2.75;2.47;;;20.80;53.60;;;;;;5074770;28;20024;-71
2021/05/30 11:42:53;;;;;;;2.85;2.40;;;20.90;53.50;;;;;;5073522;28;20051;-71
2021/05/30 11:45:36;;;;;;;2.95;2.42;;;20.90;53.20;;;;;;5074571;28;20438;-71
2021/05/30 11:48:11;;;;;;;2.10;1.90;;;21.00;53.00;;;;;;5074813;28;20021;-71
2021/05/30 11:50:55;;;;;;;3.63;2.70;;;21.10;53.10;;;;;;5073412;28;20040;-71
2021/05/30 11:53:27;;;;;;;3.40;2.90;;;21.20;52.90;;;;;;5074558;28;20480;-71
2021/05/30 11:55:54;;;;;;;2.95;2.35;;;21.30;52.50;;;;;;5074506;28;20110;-72
2021/05/30 11:58:20;;;;;;;2.67;2.00;;;21.40;52.60;;;;;;5074588;28;20020;-71
2021/05/30 12:00:45;;;;;;;2.88;2.05;;;21.50;52.60;;;;;;5074782;28;20136;-71
2021/05/30 12:03:12;;;;;;;2.42;1.88;;;21.60;52.30;;;;;;5074276;28;20024;-71
2021/05/30 12:05:39;;;;;;;3.20;1.80;;;21.60;51.40;;;;;;5074538;28;20021;-71
2021/05/30 12:08:18;;;;;;;1.90;1.80;;;21.70;51.10;;;;;;5074325;28;20031;-71
2021/05/30 12:10:57;;;;;;;2.80;1.80;;;21.70;51.00;;;;;;5074480;28;20032;-71
2021/05/30 12:13:34;;;;;;;2.20;1.83;;;21.80;50.90;;;;;;5074168;28;20392;-71
2021/05/30 12:16:15;;;;;;;2.42;2.22;;;21.90;50.60;;;;;;5072721;28;20555;-71
2021/05/30 12:18:50;;;;;;;2.95;1.95;;;22.00;49.80;;;;;;5072823;28;20475;-71
2021/05/30 12:21:16;;;;;;;2.83;1.73;;;22.00;49.60;;;;;;5074018;28;20029;-72
2021/05/30 12:23:41;;;;;;;2.13;1.58;;;22.10;49.60;;;;;;5074068;28;20029;-71
2021/05/30 12:26:10;;;;;;;1.55;1.40;;;22.20;48.90;;;;;;5072735;28;20023;-71
2021/05/30 12:28:39;;;;;;;2.05;1.67;;;22.20;48.80;;;;;;5073995;28;20437;-71
2021/05/30 12:31:31;;;;;;;1.98;1.77;;;22.30;49.40;;;;;;5072696;28;20060;-71
2021/05/30 12:33:58;;;;;;;2.40;1.80;;;22.40;49.00;;;;;;5071966;28;20044;-71
2021/05/30 12:36:32;;;;;;;2.00;1.75;;;22.50;48.50;;;;;;5073811;28;20024;-71
2021/05/30 12:39:21;;;;;;;5.18;1.75;;;22.50;48.30;;;;;;5073668;28;20081;-71
2021/05/30 12:42:09;;;;;;;1.55;1.45;;;22.60;48.10;;;;;;5073946;28;20024;-71
2021/05/30 12:44:54;;;;;;;2.05;1.85;;;22.70;48.20;;;;;;5072288;28;20165;-70
2021/05/30 12:47:31;;;;;;;1.63;1.35;;;22.80;47.50;;;;;;5073612;28;20024;-70
2021/05/30 12:49:59;;;;;;;1.75;1.52;;;22.90;47.30;;;;;;5073760;28;20484;-70